全部
Flugplatz Langeoog Airport LGO 天气
There is no TAF data available at LGO. Showing TAF data for EDWE (27 mi SW).
EME终端机场天气预报(LGO无数据)
| Date | Time (CEST) | Flight Rules | Wind Dir. | Speed | Type | Height AGL (ft) | Visibility | Remarks | ||||||
|---|---|---|---|---|---|---|---|---|---|---|---|---|---|---|
There is no METAR data available at LGO. Showing METAR data for ETNT (15 mi SE).
ETNT近期METAR历史数据(LGO无数据)
| Date | Time (CEST) | Flight Rules | Wind Dir. | Speed | Type | Height AGL (ft) | Visibility | Temp (°C) | Temp (°F) | Dew Point (°C) | Dew Point (°F) | Rel. Humid. | Pressure | Density Altitude | Remarks |
|---|---|---|---|---|---|---|---|---|---|---|---|---|---|---|---|
| 02-五月 | 23:20 | VFR | 20° | 2 kt | 10000 meters | 11° | 51° | 9° | 48° | 87% | 1014 mb | -477 ft | |||
| 02-五月 | 22:20 | VFR | 350° | 1 kt | 10000 meters | 12° | 53° | 10° | 50° | 88% | 1014 mb | -357 ft | |||
| 02-五月 | 21:20 | VFR | 340° | 3 kt | 10000 meters | 14° | 57° | 11° | 51° | 82% | 1014 mb | -117 ft | |||
| 02-五月 | 20:20 | VFR | 310° | 5 kt | 10000 meters | 16° | 60° | 12° | 53° | 77% | 1014 mb | 123 ft | |||
| 02-五月 | 19:20 | VFR | 310° | 6 kt | 10000 meters | 19° | 66° | 13° | 55° | 68% | 1014 mb | 483 ft | |||
| 02-五月 | 18:20 | VFR | 310° | 4 kt | 10000 meters | 21° | 69° | 11° | 51° | 53% | 1014 mb | 723 ft | |||
| 02-五月 | 17:20 | VFR | 290° | 7 kt | 10000 meters | 21° | 69° | 11° | 51° | 53% | 1015 mb | 693 ft | |||
| 02-五月 | 16:20 | VFR | 300° | 8 kt | 10000 meters | 23° | 73° | 7° | 44° | 36% | 1015 mb | 933 ft | |||
| 02-五月 | 15:20 | VFR | 300° | 9 kt | 10000 meters | 24° | 75° | 8° | 46° | 36% | 1015 mb | 1,053 ft | |||
| 02-五月 | 14:20 | VFR | 230° | 9 kt | 10000 meters | 24° | 75° | 2° | 35° | 24% | 1015 mb | 1,053 ft | |||
| 02-五月 | 13:20 | VFR | 230° | 9 kt | 10000 meters | 24° | 75° | 0° | 32° | 20% | 1016 mb | 1,024 ft | |||
| 02-五月 | 12:20 | VFR | 210° | 10 kt | 10000 meters | 24° | 75° | 1° | 33° | 22% | 1016 mb | 1,024 ft | |||
| 02-五月 | 11:20 | VFR | 200° | 7 kt | 10000 meters | 22° | 71° | 5° | 41° | 33% | 1017 mb | 754 ft | |||
| 02-五月 | 10:20 | VFR | 210° | 6 kt | 10000 meters | 20° | 68° | 5° | 41° | 37% | 1017 mb | 514 ft | |||
| 02-五月 | 09:20 | VFR | 200° | 8 kt | 10000 meters | 17° | 62° | 5° | 41° | 45% | 1018 mb | 124 ft | |||
| 02-五月 | 08:20 | VFR | 180° | 6 kt | 10000 meters | 15° | 59° | 5° | 41° | 51% | 1018 mb | -116 ft | |||
| 02-五月 | 07:20 | VFR | 190° | 4 kt | 10000 meters | 12° | 53° | 5° | 41° | 62% | 1018 mb | -476 ft | |||
| 02-五月 | 06:20 | VFR | 170° | 2 kt | 10000 meters | 9° | 48° | 5° | 41° | 76% | 1018 mb | -836 ft | |||
| 02-五月 | 05:20 | VFR | 160° | 3 kt | 10000 meters | 11° | 51° | 5° | 41° | 66% | 1018 mb | -596 ft | |||
| 02-五月 | 04:20 | VFR | Variable | 3 kt | 10000 meters | 11° | 51° | 5° | 41° | 66% | 1019 mb | -625 ft | |||
| 02-五月 | 03:20 | VFR | 140° | 2 kt | 10000 meters | 10° | 50° | 5° | 41° | 71% | 1020 mb | -775 ft | |||
| 02-五月 | 02:20 | VFR | 180° | 4 kt | 10000 meters | 14° | 57° | 5° | 41° | 55% | 1020 mb | -295 ft | |||
| 02-五月 | 01:20 | VFR | 150° | 4 kt | 10000 meters | 13° | 55° | 4° | 39° | 54% | 1021 mb | -444 ft | |||
| 02-五月 | 00:20 | VFR | 140° | 3 kt | 10000 meters | 13° | 55° | 4° | 39° | 54% | 1021 mb | -444 ft |
登录
| 您的浏览器不支持. 升级您的浏览器 |
